createdAt,value
2019-04-14T00:02:29.620Z,3.5
2019-04-14T00:07:31.997Z,10.8
2019-04-14T00:12:34.183Z,4.8
2019-04-14T00:17:36.946Z,7.9
2019-04-14T00:22:38.753Z,7.1
2019-04-14T00:27:41.118Z,5.6
2019-04-14T00:32:44.361Z,7.8
2019-04-14T00:37:46.644Z,7.8
2019-04-14T00:42:47.907Z,8.1
2019-04-14T00:47:59.517Z,14.9
2019-04-14T00:52:52.414Z,12.1
2019-04-14T00:57:55.114Z,14.4
2019-04-14T01:02:57.969Z,10
2019-04-14T01:07:59.372Z,5.7
2019-04-14T01:13:02.763Z,8
2019-04-14T01:18:03.925Z,10.9
2019-04-14T01:23:06.443Z,11.3
2019-04-14T01:28:08.958Z,10.4
2019-04-14T01:33:11.869Z,7.2
2019-04-14T01:38:13.101Z,11.6
2019-04-14T01:43:16.659Z,12
2019-04-14T01:48:17.816Z,13.9
2019-04-14T01:53:20.757Z,10.4
2019-04-14T01:58:22.889Z,8.3
2019-04-14T02:03:25.740Z,18.9
2019-04-14T02:08:26.843Z,7.9
2019-04-14T02:13:29.283Z,15.4
2019-04-14T02:18:31.858Z,16.700001
2019-04-14T02:23:34.394Z,18.700001
2019-04-14T02:28:37.436Z,9.5
2019-04-14T02:34:00.698Z,21.5
2019-04-14T02:34:41.648Z,21.5
2019-04-14T02:35:06.133Z,21.5
2019-04-14T02:39:38.578Z,9.7
2019-04-14T02:40:08.977Z,9.7
2019-04-14T02:44:12.149Z,11.6
2019-04-14T02:45:08.571Z,11.6
2019-04-14T02:49:16.918Z,20.799999
2019-04-14T02:49:47.135Z,20.799999
2019-04-14T02:54:11.783Z,16.6
2019-04-14T02:54:50.416Z,16.6
2019-04-14T02:55:08.560Z,16.6
2019-04-14T02:59:13.231Z,17.9
2019-04-14T02:59:45.257Z,17.9
2019-04-14T03:04:21.649Z,25.799999
2019-04-14T03:04:50.906Z,25.799999
2019-04-14T03:05:19.332Z,25.799999
2019-04-14T03:09:30.242Z,23.1
2019-04-14T03:09:46.693Z,23.1
2019-04-14T03:10:20.960Z,23.1
2019-04-14T03:14:21.520Z,14.5
2019-04-14T03:14:53.848Z,14.5
2019-04-14T03:15:27.892Z,14.5
2019-04-14T03:19:25.040Z,14.9
2019-04-14T03:20:06.525Z,14.9
2019-04-14T03:20:27.958Z,14.9
2019-04-14T03:24:26.976Z,13.1
2019-04-14T03:24:42.193Z,13.1
2019-04-14T03:25:17.110Z,13.1
2019-04-14T03:29:29.209Z,10.8
2019-04-14T03:29:58.382Z,10.8
2019-04-14T03:35:24.908Z,19
2019-04-14T03:39:41.979Z,10.4
2019-04-14T03:40:05.875Z,10.4
2019-04-14T03:40:34.325Z,10.4
2019-04-14T03:44:34.670Z,15.4
2019-04-14T03:45:11.123Z,15.4
2019-04-14T03:45:43.411Z,15.4
2019-04-14T03:49:37.287Z,11.5
2019-04-14T03:50:06.038Z,11.5
2019-04-14T03:50:37.870Z,11.5
2019-04-14T03:54:33.271Z,14.8
2019-04-14T03:55:04.108Z,14.8
2019-04-14T03:55:25.032Z,14.8
2019-04-14T03:59:17.593Z,12.3
2019-04-14T04:04:20.605Z,20.799999
2019-04-14T04:09:21.905Z,14
2019-04-14T04:14:24.620Z,16.299999
2019-04-14T04:19:27.302Z,13.1
2019-04-14T04:24:30.623Z,23.200001
2019-04-14T04:29:31.111Z,16.299999
2019-04-14T04:34:33.801Z,14.1
2019-04-14T04:39:36.966Z,11.5
2019-04-14T04:44:38.080Z,16.700001
2019-04-14T04:49:40.504Z,15.1
2019-04-14T04:54:42.842Z,19.9
2019-04-14T04:59:45.269Z,23.4
2019-04-14T05:04:48.300Z,8.1
2019-04-14T05:09:49.606Z,17.200001
2019-04-14T05:14:52.367Z,12.9
2019-04-14T05:19:54.193Z,27.299999
2019-04-14T05:24:57.155Z,21.4
2019-04-14T05:29:58.786Z,28.1
2019-04-14T05:35:00.944Z,23.200001
2019-04-14T05:40:03.789Z,15.8
2019-04-14T05:45:06.601Z,26.299999
2019-04-14T05:50:07.858Z,16.4
2019-04-14T05:55:11.197Z,21.5
2019-04-14T06:00:12.526Z,17.5
2019-04-14T06:05:14.702Z,22.299999
2019-04-14T06:10:17.160Z,14.1
2019-04-14T06:15:19.257Z,21.299999
2019-04-14T06:20:21.661Z,28.700001
2019-04-14T06:25:23.885Z,30.6
2019-04-14T06:30:26.203Z,18.799999
2019-04-14T06:35:28.484Z,29.6
2019-04-14T06:40:30.787Z,25.799999
2019-04-14T06:45:33.176Z,28.5
2019-04-14T06:50:35.496Z,24.9
2019-04-14T06:55:37.868Z,18.200001
2019-04-14T07:00:39.902Z,27.9
2019-04-14T07:05:42.357Z,29
2019-04-14T07:10:44.612Z,20.700001
2019-04-14T07:15:46.817Z,19.799999
2019-04-14T07:20:49.109Z,20.299999
2019-04-14T07:25:51.367Z,23.9
2019-04-14T07:30:53.785Z,17
2019-04-14T07:35:55.994Z,30.299999
2019-04-14T07:40:58.220Z,26.5
2019-04-14T07:46:00.674Z,20.5
2019-04-14T07:51:02.868Z,18.9
2019-04-14T07:56:05.271Z,23.9
2019-04-14T08:01:07.467Z,18.700001
2019-04-14T08:06:09.678Z,23
2019-04-14T08:11:12.047Z,25.1
2019-04-14T08:16:14.384Z,29.299999
2019-04-14T08:21:16.689Z,34.400002
2019-04-14T08:26:19.016Z,27
2019-04-14T08:31:21.312Z,26.6
2019-04-14T08:36:23.587Z,32.700001
2019-04-14T08:41:25.705Z,29.1
2019-04-14T08:46:28.009Z,34.099998
2019-04-14T08:51:30.322Z,37.799999
2019-04-14T08:56:32.698Z,33.5
2019-04-14T09:01:35.046Z,27.5
2019-04-14T09:06:37.330Z,38.799999
2019-04-14T09:11:39.587Z,21
2019-04-14T09:16:41.865Z,25
2019-04-14T09:21:44.217Z,34.200001
2019-04-14T09:26:46.471Z,14.9
2019-04-14T09:31:48.848Z,44.700001
2019-04-14T09:36:50.964Z,24.200001
2019-04-14T09:41:53.293Z,44.299999
2019-04-14T09:46:55.540Z,28.1
2019-04-14T09:51:57.947Z,26.1
2019-04-14T09:57:00.358Z,24.6
2019-04-14T10:02:02.499Z,27.5
2019-04-14T10:07:04.856Z,30.6
2019-04-14T10:12:07.199Z,30.299999
2019-04-14T10:17:09.317Z,25
2019-04-14T10:22:11.699Z,32.700001
2019-04-14T10:27:13.992Z,25.9
2019-04-14T10:32:16.255Z,17.4
2019-04-14T10:37:18.517Z,24.799999
2019-04-14T10:42:20.866Z,25.9
2019-04-14T10:47:23.127Z,19.299999
2019-04-14T10:52:25.437Z,30
2019-04-14T10:57:27.791Z,28.200001
2019-04-14T11:02:29.945Z,43.599998
2019-04-14T11:07:32.423Z,25.6
2019-04-14T11:12:34.611Z,34.799999
2019-04-14T11:17:37.000Z,34
2019-04-14T11:22:39.241Z,24.200001
2019-04-14T11:27:41.605Z,19.4
2019-04-14T11:32:43.790Z,15.4
2019-04-14T11:37:46.159Z,40.599998
2019-04-14T11:42:52.414Z,18.5
2019-04-14T11:52:53.063Z,17.5
2019-04-14T11:57:55.219Z,18.5
2019-04-14T12:02:57.549Z,19.6
2019-04-14T12:07:59.827Z,19.4
2019-04-14T12:13:02.134Z,18.4
2019-04-14T12:18:04.412Z,20.4
2019-04-14T12:23:06.643Z,15.7
2019-04-14T12:28:09.262Z,12.3
2019-04-14T12:33:11.299Z,14.4
2019-04-14T12:38:13.693Z,18.4
2019-04-14T12:43:15.901Z,16.200001
2019-04-14T12:48:18.182Z,12.6
2019-04-14T12:53:20.424Z,14.8
2019-04-14T12:58:22.968Z,16.200001
2019-04-14T13:03:25.097Z,15.8
2019-04-14T13:13:29.755Z,13.8
2019-04-14T13:18:31.926Z,16.299999
2019-04-14T13:23:34.266Z,17.5
2019-04-14T13:28:36.547Z,17
2019-04-14T13:33:38.839Z,15.7
2019-04-14T13:38:41.063Z,15.5
2019-04-14T13:43:43.347Z,16.4
2019-04-14T13:48:45.861Z,15.7
2019-04-14T13:53:48.093Z,19.4
2019-04-14T13:58:50.316Z,16.6
2019-04-14T14:03:52.663Z,16.5
2019-04-14T14:08:54.958Z,21.9
2019-04-14T14:13:57.195Z,20.5
2019-04-14T14:19:02.771Z,24.799999
2019-04-14T14:24:02.967Z,13.5
2019-04-14T14:29:05.359Z,13.7
2019-04-14T14:34:07.482Z,16.9
2019-04-14T14:39:09.761Z,17.1
2019-04-14T14:44:12.044Z,12
2019-04-14T14:49:14.369Z,10.4
2019-04-14T14:54:16.750Z,14.7
2019-04-14T14:59:19.018Z,13.5
2019-04-14T15:04:21.282Z,11.3
2019-04-14T15:09:23.631Z,14.9
2019-04-14T15:14:25.907Z,14.9
2019-04-14T15:19:28.164Z,12.7
2019-04-14T15:24:30.421Z,14.2
2019-04-14T15:34:35.044Z,9.8
2019-04-14T15:39:37.741Z,12
2019-04-14T15:44:39.535Z,14.4
2019-04-14T15:49:41.816Z,12.5
2019-04-14T15:54:44.152Z,8.5
2019-04-14T15:59:46.485Z,11
2019-04-14T16:04:48.853Z,9.4
2019-04-14T16:09:51.044Z,14.8
2019-04-14T16:14:53.359Z,9.8
2019-04-14T16:19:55.592Z,7.9
2019-04-14T16:24:58.025Z,8.4
2019-04-14T16:30:00.275Z,12.6
2019-04-14T16:35:02.576Z,12.6
2019-04-14T16:40:04.898Z,8.6
2019-04-14T16:45:07.103Z,21.299999
2019-04-14T16:50:09.462Z,6.9
2019-04-14T16:55:11.643Z,11.8
2019-04-14T17:00:13.967Z,13.2
2019-04-14T17:05:16.277Z,12
2019-04-14T17:10:18.641Z,8.2
2019-04-14T17:15:21.006Z,7.7
2019-04-14T17:20:23.219Z,6.6
2019-04-14T17:25:25.505Z,24.4
2019-04-14T17:30:27.776Z,11.5
2019-04-14T17:35:30.345Z,9.9
2019-04-14T17:40:32.969Z,11.7
2019-04-14T17:45:34.665Z,10.3
2019-04-14T17:50:40.900Z,6.6
2019-04-14T17:55:49.421Z,12.6
2019-04-14T18:00:41.607Z,7.6
2019-04-14T18:05:43.864Z,5.2
2019-04-14T18:10:46.116Z,11.8
2019-04-14T18:15:48.424Z,12.1
2019-04-14T18:25:52.968Z,24.700001
2019-04-14T18:30:55.319Z,8.8
2019-04-14T18:35:57.540Z,8.2
2019-04-14T18:40:59.905Z,8.4
2019-04-14T18:46:02.367Z,7.6
2019-04-14T18:51:04.529Z,11.4
2019-04-14T18:56:06.834Z,15.2
2019-04-14T19:01:09.052Z,12.3
2019-04-14T19:06:11.394Z,6.6
2019-04-14T19:11:13.679Z,11.7
2019-04-14T19:16:15.940Z,9.9
2019-04-14T19:21:18.387Z,10.6
2019-04-14T19:26:20.669Z,6.7
2019-04-14T19:31:22.901Z,7.9
2019-04-14T19:36:25.182Z,15.1
2019-04-14T19:41:27.334Z,9.6
2019-04-14T19:46:29.902Z,12.2
2019-04-14T19:51:31.921Z,13
2019-04-14T19:56:34.303Z,7.8
2019-04-14T20:01:36.550Z,9.4
2019-04-14T20:06:38.810Z,10.3
2019-04-14T20:11:41.199Z,10.6
2019-04-14T20:16:43.574Z,10.4
2019-04-14T20:21:45.861Z,9.2
2019-04-14T20:26:48.198Z,6.4
2019-04-14T20:31:50.353Z,9.2
2019-04-14T20:36:52.720Z,11.2
2019-04-14T20:41:54.964Z,7
2019-04-14T20:46:57.207Z,6.2
2019-04-14T20:51:59.527Z,8.6
2019-04-14T20:57:01.866Z,13.5
2019-04-14T21:02:04.097Z,10.2
2019-04-14T21:07:06.370Z,16.299999
2019-04-14T21:12:08.788Z,10.7
2019-04-14T21:17:11.090Z,9
2019-04-14T21:22:13.262Z,16.4
2019-04-14T21:27:15.616Z,16.299999
2019-04-14T21:32:17.876Z,13.6
2019-04-14T21:37:20.264Z,16.1
2019-04-14T21:42:22.358Z,8.2
2019-04-14T21:47:24.751Z,11.4
2019-04-14T21:52:26.957Z,10.4
2019-04-14T21:57:29.325Z,15.1
2019-04-14T22:02:31.705Z,9.3
2019-04-14T22:07:33.992Z,12.8
2019-04-14T22:12:36.324Z,10.8
2019-04-14T22:17:38.687Z,12.1
2019-04-14T22:22:40.816Z,12.5
2019-04-14T22:27:43.167Z,12.2
2019-04-14T22:32:45.391Z,6.7
2019-04-14T22:37:47.778Z,10.8
2019-04-14T22:42:50.005Z,9.4
2019-04-14T22:47:52.211Z,7.5
2019-04-14T22:52:54.475Z,32.099998
2019-04-14T22:57:56.991Z,8.8
2019-04-14T23:02:59.094Z,12.6
2019-04-14T23:08:01.527Z,5.7
2019-04-14T23:13:03.820Z,11.9
2019-04-14T23:18:06.172Z,10.4
2019-04-14T23:23:08.506Z,15.9
2019-04-14T23:28:10.701Z,7.3
2019-04-14T23:33:12.812Z,9.3
2019-04-14T23:38:15.250Z,10.3
2019-04-14T23:43:17.650Z,13.2
2019-04-14T23:48:19.824Z,13.4
2019-04-14T23:53:22.202Z,13.4
2019-04-14T23:58:24.435Z,8.8
